sensor_id;sensor_type;location;lat;lon;timestamp;P1;durP1;ratioP1;P2;durP2;ratioP2
9852;SDS011;4965;43.238;27.864;2022-08-16T00:02:16;11.32;;;7.35;;
9852;SDS011;4965;43.238;27.864;2022-08-16T00:04:44;12.10;;;8.10;;
9852;SDS011;4965;43.238;27.864;2022-08-16T00:07:11;8.30;;;7.30;;
9852;SDS011;4965;43.238;27.864;2022-08-16T00:09:38;11.07;;;8.02;;
9852;SDS011;4965;43.238;27.864;2022-08-16T00:12:05;9.82;;;7.82;;
9852;SDS011;4965;43.238;27.864;2022-08-16T00:14:33;12.73;;;8.32;;
9852;SDS011;4965;43.238;27.864;2022-08-16T00:17:00;13.43;;;7.57;;
9852;SDS011;4965;43.238;27.864;2022-08-16T00:19:29;8.05;;;6.85;;
9852;SDS011;4965;43.238;27.864;2022-08-16T00:21:59;8.60;;;7.18;;
9852;SDS011;4965;43.238;27.864;2022-08-16T00:24:26;8.05;;;6.72;;
9852;SDS011;4965;43.238;27.864;2022-08-16T00:26:54;9.10;;;7.85;;
9852;SDS011;4965;43.238;27.864;2022-08-16T00:29:21;13.00;;;10.18;;
9852;SDS011;4965;43.238;27.864;2022-08-16T00:31:49;15.32;;;12.20;;
9852;SDS011;4965;43.238;27.864;2022-08-16T00:34:17;19.90;;;12.15;;
9852;SDS011;4965;43.238;27.864;2022-08-16T00:36:45;17.13;;;10.73;;
9852;SDS011;4965;43.238;27.864;2022-08-16T00:39:13;10.68;;;9.30;;
9852;SDS011;4965;43.238;27.864;2022-08-16T00:41:41;9.73;;;8.52;;
9852;SDS011;4965;43.238;27.864;2022-08-16T00:44:10;9.70;;;8.30;;
9852;SDS011;4965;43.238;27.864;2022-08-16T00:46:40;13.95;;;8.85;;
9852;SDS011;4965;43.238;27.864;2022-08-16T00:49:11;8.82;;;7.43;;
9852;SDS011;4965;43.238;27.864;2022-08-16T00:51:39;13.02;;;7.55;;
9852;SDS011;4965;43.238;27.864;2022-08-16T00:54:07;9.88;;;8.05;;
9852;SDS011;4965;43.238;27.864;2022-08-16T00:56:36;8.32;;;7.03;;
9852;SDS011;4965;43.238;27.864;2022-08-16T00:59:05;7.90;;;7.00;;
9852;SDS011;4965;43.238;27.864;2022-08-16T01:01:33;8.38;;;6.93;;
9852;SDS011;4965;43.238;27.864;2022-08-16T01:04:01;11.05;;;6.72;;
9852;SDS011;4965;43.238;27.864;2022-08-16T01:06:28;9.18;;;7.03;;
9852;SDS011;4965;43.238;27.864;2022-08-16T01:08:55;13.70;;;6.95;;
9852;SDS011;4965;43.238;27.864;2022-08-16T01:11:23;9.38;;;6.65;;
9852;SDS011;4965;43.238;27.864;2022-08-16T01:13:55;11.65;;;6.30;;
9852;SDS011;4965;43.238;27.864;2022-08-16T01:16:26;7.85;;;6.40;;
9852;SDS011;4965;43.238;27.864;2022-08-16T01:18:56;8.60;;;6.35;;
9852;SDS011;4965;43.238;27.864;2022-08-16T01:21:30;7.60;;;6.22;;
9852;SDS011;4965;43.238;27.864;2022-08-16T01:24:06;10.25;;;6.50;;
9852;SDS011;4965;43.238;27.864;2022-08-16T01:26:40;8.82;;;6.38;;
9852;SDS011;4965;43.238;27.864;2022-08-16T01:29:10;7.72;;;6.38;;
9852;SDS011;4965;43.238;27.864;2022-08-16T01:31:41;13.55;;;6.95;;
9852;SDS011;4965;43.238;27.864;2022-08-16T01:34:08;9.52;;;6.72;;
9852;SDS011;4965;43.238;27.864;2022-08-16T01:36:36;13.20;;;6.65;;
9852;SDS011;4965;43.238;27.864;2022-08-16T01:39:09;8.35;;;6.78;;
9852;SDS011;4965;43.238;27.864;2022-08-16T01:41:38;9.93;;;7.00;;
9852;SDS011;4965;43.238;27.864;2022-08-16T01:44:05;7.95;;;6.72;;
9852;SDS011;4965;43.238;27.864;2022-08-16T01:46:34;7.00;;;6.22;;
9852;SDS011;4965;43.238;27.864;2022-08-16T01:49:03;7.20;;;6.50;;
9852;SDS011;4965;43.238;27.864;2022-08-16T01:51:34;8.23;;;6.72;;
9852;SDS011;4965;43.238;27.864;2022-08-16T01:54:02;9.80;;;6.70;;
9852;SDS011;4965;43.238;27.864;2022-08-16T01:56:31;7.45;;;6.70;;
9852;SDS011;4965;43.238;27.864;2022-08-16T01:58:59;7.10;;;6.40;;
9852;SDS011;4965;43.238;27.864;2022-08-16T02:01:28;7.85;;;7.15;;
9852;SDS011;4965;43.238;27.864;2022-08-16T02:03:56;9.52;;;6.55;;
9852;SDS011;4965;43.238;27.864;2022-08-16T02:06:23;11.57;;;6.63;;
9852;SDS011;4965;43.238;27.864;2022-08-16T02:08:51;10.65;;;6.95;;
9852;SDS011;4965;43.238;27.864;2022-08-16T02:11:19;10.13;;;7.47;;
9852;SDS011;4965;43.238;27.864;2022-08-16T02:13:47;8.43;;;7.63;;
9852;SDS011;4965;43.238;27.864;2022-08-16T02:16:15;12.13;;;7.18;;
9852;SDS011;4965;43.238;27.864;2022-08-16T02:18:42;10.25;;;7.32;;
9852;SDS011;4965;43.238;27.864;2022-08-16T02:21:09;10.98;;;7.65;;
9852;SDS011;4965;43.238;27.864;2022-08-16T02:23:37;8.15;;;7.38;;
9852;SDS011;4965;43.238;27.864;2022-08-16T02:26:04;10.88;;;7.25;;
9852;SDS011;4965;43.238;27.864;2022-08-16T02:28:31;8.55;;;7.20;;
9852;SDS011;4965;43.238;27.864;2022-08-16T02:31:01;8.18;;;7.32;;
9852;SDS011;4965;43.238;27.864;2022-08-16T02:33:31;9.30;;;7.20;;
9852;SDS011;4965;43.238;27.864;2022-08-16T02:35:57;8.25;;;7.20;;
9852;SDS011;4965;43.238;27.864;2022-08-16T02:38:24;9.38;;;8.20;;
9852;SDS011;4965;43.238;27.864;2022-08-16T02:40:52;12.20;;;8.25;;
9852;SDS011;4965;43.238;27.864;2022-08-16T02:43:19;9.60;;;7.78;;
9852;SDS011;4965;43.238;27.864;2022-08-16T02:45:46;10.38;;;8.60;;
9852;SDS011;4965;43.238;27.864;2022-08-16T02:48:14;10.50;;;8.75;;
9852;SDS011;4965;43.238;27.864;2022-08-16T02:50:41;11.93;;;8.13;;
9852;SDS011;4965;43.238;27.864;2022-08-16T02:53:08;9.40;;;8.05;;
9852;SDS011;4965;43.238;27.864;2022-08-16T02:55:35;12.73;;;9.38;;
9852;SDS011;4965;43.238;27.864;2022-08-16T02:58:02;12.20;;;8.57;;
9852;SDS011;4965;43.238;27.864;2022-08-16T03:00:30;11.20;;;9.20;;
9852;SDS011;4965;43.238;27.864;2022-08-16T03:02:58;12.48;;;9.00;;
9852;SDS011;4965;43.238;27.864;2022-08-16T03:05:26;11.15;;;9.25;;
9852;SDS011;4965;43.238;27.864;2022-08-16T03:07:53;11.77;;;9.80;;
9852;SDS011;4965;43.238;27.864;2022-08-16T03:10:20;10.95;;;9.00;;
9852;SDS011;4965;43.238;27.864;2022-08-16T03:12:47;12.80;;;10.48;;
9852;SDS011;4965;43.238;27.864;2022-08-16T03:15:15;15.55;;;9.82;;
9852;SDS011;4965;43.238;27.864;2022-08-16T03:17:43;15.35;;;10.18;;
9852;SDS011;4965;43.238;27.864;2022-08-16T03:20:11;11.73;;;10.40;;
9852;SDS011;4965;43.238;27.864;2022-08-16T03:22:40;11.95;;;9.48;;
9852;SDS011;4965;43.238;27.864;2022-08-16T03:25:09;19.77;;;9.55;;
9852;SDS011;4965;43.238;27.864;2022-08-16T03:27:37;15.27;;;9.90;;
9852;SDS011;4965;43.238;27.864;2022-08-16T03:30:06;12.82;;;9.45;;
9852;SDS011;4965;43.238;27.864;2022-08-16T03:32:35;15.68;;;9.65;;
9852;SDS011;4965;43.238;27.864;2022-08-16T03:35:02;19.40;;;8.93;;
9852;SDS011;4965;43.238;27.864;2022-08-16T03:37:30;11.48;;;8.95;;
9852;SDS011;4965;43.238;27.864;2022-08-16T03:39:58;15.60;;;9.25;;
9852;SDS011;4965;43.238;27.864;2022-08-16T03:42:25;15.48;;;8.55;;
9852;SDS011;4965;43.238;27.864;2022-08-16T03:44:52;15.48;;;9.75;;
9852;SDS011;4965;43.238;27.864;2022-08-16T03:47:19;16.52;;;9.95;;
9852;SDS011;4965;43.238;27.864;2022-08-16T03:49:46;15.80;;;10.18;;
9852;SDS011;4965;43.238;27.864;2022-08-16T03:52:14;15.73;;;9.35;;
9852;SDS011;4965;43.238;27.864;2022-08-16T03:54:41;11.63;;;9.07;;
9852;SDS011;4965;43.238;27.864;2022-08-16T03:57:09;12.70;;;9.38;;
9852;SDS011;4965;43.238;27.864;2022-08-16T03:59:36;14.30;;;9.07;;
9852;SDS011;4965;43.238;27.864;2022-08-16T04:02:03;20.67;;;9.73;;
9852;SDS011;4965;43.238;27.864;2022-08-16T04:04:30;21.50;;;9.63;;
9852;SDS011;4965;43.238;27.864;2022-08-16T04:07:00;26.85;;;9.27;;
9852;SDS011;4965;43.238;27.864;2022-08-16T04:09:28;16.60;;;8.80;;
9852;SDS011;4965;43.238;27.864;2022-08-16T04:11:55;11.85;;;8.98;;
9852;SDS011;4965;43.238;27.864;2022-08-16T04:14:23;9.57;;;7.80;;
9852;SDS011;4965;43.238;27.864;2022-08-16T04:16:50;13.75;;;8.40;;
9852;SDS011;4965;43.238;27.864;2022-08-16T04:19:17;22.38;;;9.15;;
9852;SDS011;4965;43.238;27.864;2022-08-16T04:21:44;15.15;;;8.18;;
9852;SDS011;4965;43.238;27.864;2022-08-16T04:24:11;23.58;;;8.98;;
9852;SDS011;4965;43.238;27.864;2022-08-16T04:26:38;18.67;;;7.80;;
9852;SDS011;4965;43.238;27.864;2022-08-16T04:29:04;13.85;;;7.85;;
9852;SDS011;4965;43.238;27.864;2022-08-16T04:31:33;21.13;;;7.53;;
9852;SDS011;4965;43.238;27.864;2022-08-16T04:33:59;20.50;;;7.93;;
9852;SDS011;4965;43.238;27.864;2022-08-16T04:36:26;11.88;;;7.85;;
9852;SDS011;4965;43.238;27.864;2022-08-16T04:38:53;9.77;;;7.13;;
9852;SDS011;4965;43.238;27.864;2022-08-16T04:41:21;17.50;;;8.40;;
9852;SDS011;4965;43.238;27.864;2022-08-16T04:43:48;10.38;;;7.30;;
9852;SDS011;4965;43.238;27.864;2022-08-16T04:46:15;11.27;;;8.15;;
9852;SDS011;4965;43.238;27.864;2022-08-16T04:48:43;14.52;;;7.03;;
9852;SDS011;4965;43.238;27.864;2022-08-16T04:51:10;19.50;;;8.00;;
9852;SDS011;4965;43.238;27.864;2022-08-16T04:53:37;11.25;;;7.63;;
9852;SDS011;4965;43.238;27.864;2022-08-16T04:56:04;12.40;;;7.20;;
9852;SDS011;4965;43.238;27.864;2022-08-16T04:58:32;12.75;;;7.18;;
9852;SDS011;4965;43.238;27.864;2022-08-16T05:00:59;11.73;;;7.93;;
9852;SDS011;4965;43.238;27.864;2022-08-16T05:03:26;12.32;;;6.47;;
9852;SDS011;4965;43.238;27.864;2022-08-16T05:05:54;13.82;;;6.95;;
9852;SDS011;4965;43.238;27.864;2022-08-16T05:08:22;15.82;;;9.60;;
9852;SDS011;4965;43.238;27.864;2022-08-16T05:10:50;13.40;;;11.23;;
9852;SDS011;4965;43.238;27.864;2022-08-16T05:13:17;14.13;;;12.77;;
9852;SDS011;4965;43.238;27.864;2022-08-16T05:15:44;16.25;;;13.20;;
9852;SDS011;4965;43.238;27.864;2022-08-16T05:18:11;13.05;;;11.43;;
9852;SDS011;4965;43.238;27.864;2022-08-16T05:20:38;16.00;;;14.00;;
9852;SDS011;4965;43.238;27.864;2022-08-16T05:23:06;19.73;;;14.73;;
9852;SDS011;4965;43.238;27.864;2022-08-16T05:25:34;20.35;;;16.75;;
9852;SDS011;4965;43.238;27.864;2022-08-16T05:28:00;29.15;;;16.00;;
9852;SDS011;4965;43.238;27.864;2022-08-16T05:30:27;24.02;;;17.38;;
9852;SDS011;4965;43.238;27.864;2022-08-16T05:32:54;22.63;;;16.50;;
9852;SDS011;4965;43.238;27.864;2022-08-16T05:35:22;25.08;;;18.10;;
9852;SDS011;4965;43.238;27.864;2022-08-16T05:37:49;23.33;;;18.73;;
9852;SDS011;4965;43.238;27.864;2022-08-16T05:40:17;22.88;;;20.42;;
9852;SDS011;4965;43.238;27.864;2022-08-16T05:42:44;22.33;;;18.65;;
9852;SDS011;4965;43.238;27.864;2022-08-16T05:45:11;22.50;;;17.20;;
9852;SDS011;4965;43.238;27.864;2022-08-16T05:47:38;24.70;;;19.00;;
9852;SDS011;4965;43.238;27.864;2022-08-16T05:50:06;25.52;;;18.02;;
9852;SDS011;4965;43.238;27.864;2022-08-16T05:52:33;18.15;;;16.20;;
9852;SDS011;4965;43.238;27.864;2022-08-16T05:55:01;16.52;;;14.73;;
9852;SDS011;4965;43.238;27.864;2022-08-16T05:57:29;19.58;;;12.55;;
9852;SDS011;4965;43.238;27.864;2022-08-16T05:59:56;14.80;;;13.27;;
9852;SDS011;4965;43.238;27.864;2022-08-16T06:02:25;18.27;;;12.20;;
9852;SDS011;4965;43.238;27.864;2022-08-16T06:04:54;16.88;;;11.80;;
9852;SDS011;4965;43.238;27.864;2022-08-16T06:07:22;17.80;;;11.55;;
9852;SDS011;4965;43.238;27.864;2022-08-16T06:09:48;14.30;;;9.88;;
9852;SDS011;4965;43.238;27.864;2022-08-16T06:12:15;11.90;;;9.75;;
9852;SDS011;4965;43.238;27.864;2022-08-16T06:14:44;14.90;;;9.80;;
9852;SDS011;4965;43.238;27.864;2022-08-16T06:17:11;21.10;;;10.23;;
9852;SDS011;4965;43.238;27.864;2022-08-16T06:19:40;13.15;;;9.63;;
9852;SDS011;4965;43.238;27.864;2022-08-16T06:22:07;15.15;;;9.13;;
9852;SDS011;4965;43.238;27.864;2022-08-16T06:24:35;11.05;;;9.07;;
9852;SDS011;4965;43.238;27.864;2022-08-16T06:27:02;14.18;;;9.88;;
9852;SDS011;4965;43.238;27.864;2022-08-16T06:29:29;13.88;;;9.40;;
9852;SDS011;4965;43.238;27.864;2022-08-16T06:31:58;12.90;;;10.40;;
9852;SDS011;4965;43.238;27.864;2022-08-16T06:34:25;17.98;;;11.10;;
9852;SDS011;4965;43.238;27.864;2022-08-16T06:36:52;11.88;;;10.65;;
9852;SDS011;4965;43.238;27.864;2022-08-16T06:39:19;17.08;;;12.38;;
9852;SDS011;4965;43.238;27.864;2022-08-16T06:41:46;23.80;;;11.93;;
9852;SDS011;4965;43.238;27.864;2022-08-16T06:44:13;14.32;;;11.45;;
9852;SDS011;4965;43.238;27.864;2022-08-16T06:46:41;16.40;;;12.13;;
9852;SDS011;4965;43.238;27.864;2022-08-16T06:49:10;11.43;;;10.25;;
9852;SDS011;4965;43.238;27.864;2022-08-16T06:51:38;13.95;;;12.43;;
9852;SDS011;4965;43.238;27.864;2022-08-16T06:54:06;18.27;;;12.18;;
9852;SDS011;4965;43.238;27.864;2022-08-16T06:56:34;14.38;;;11.48;;
9852;SDS011;4965;43.238;27.864;2022-08-16T06:59:02;16.42;;;12.63;;
9852;SDS011;4965;43.238;27.864;2022-08-16T07:01:29;21.35;;;12.93;;
9852;SDS011;4965;43.238;27.864;2022-08-16T07:03:56;16.48;;;14.77;;
9852;SDS011;4965;43.238;27.864;2022-08-16T07:06:24;19.58;;;12.45;;
9852;SDS011;4965;43.238;27.864;2022-08-16T07:08:52;15.32;;;12.00;;
9852;SDS011;4965;43.238;27.864;2022-08-16T07:11:20;19.95;;;11.13;;
9852;SDS011;4965;43.238;27.864;2022-08-16T07:13:50;16.48;;;13.45;;
9852;SDS011;4965;43.238;27.864;2022-08-16T07:16:18;14.75;;;10.52;;
9852;SDS011;4965;43.238;27.864;2022-08-16T07:18:46;12.77;;;9.35;;
9852;SDS011;4965;43.238;27.864;2022-08-16T07:21:14;12.75;;;9.18;;
9852;SDS011;4965;43.238;27.864;2022-08-16T07:23:42;13.75;;;10.57;;
9852;SDS011;4965;43.238;27.864;2022-08-16T07:26:12;15.75;;;8.63;;
9852;SDS011;4965;43.238;27.864;2022-08-16T07:28:43;13.25;;;8.32;;
9852;SDS011;4965;43.238;27.864;2022-08-16T07:31:11;13.13;;;7.88;;
9852;SDS011;4965;43.238;27.864;2022-08-16T07:33:39;10.43;;;7.68;;
9852;SDS011;4965;43.238;27.864;2022-08-16T07:36:06;12.82;;;6.80;;
9852;SDS011;4965;43.238;27.864;2022-08-16T07:38:34;10.20;;;7.28;;
9852;SDS011;4965;43.238;27.864;2022-08-16T07:41:03;13.77;;;7.57;;
9852;SDS011;4965;43.238;27.864;2022-08-16T07:43:30;7.68;;;6.82;;
9852;SDS011;4965;43.238;27.864;2022-08-16T07:45:58;7.63;;;6.93;;
9852;SDS011;4965;43.238;27.864;2022-08-16T07:48:26;7.18;;;6.40;;
9852;SDS011;4965;43.238;27.864;2022-08-16T07:50:53;7.70;;;6.90;;
9852;SDS011;4965;43.238;27.864;2022-08-16T07:53:20;8.50;;;6.93;;
9852;SDS011;4965;43.238;27.864;2022-08-16T07:55:47;18.95;;;8.23;;
9852;SDS011;4965;43.238;27.864;2022-08-16T07:58:15;11.95;;;7.70;;
9852;SDS011;4965;43.238;27.864;2022-08-16T08:00:42;10.02;;;7.95;;
9852;SDS011;4965;43.238;27.864;2022-08-16T08:03:09;10.90;;;6.60;;
9852;SDS011;4965;43.238;27.864;2022-08-16T08:05:37;9.60;;;7.95;;
9852;SDS011;4965;43.238;27.864;2022-08-16T08:08:04;10.73;;;9.07;;
9852;SDS011;4965;43.238;27.864;2022-08-16T08:10:31;11.45;;;8.15;;
9852;SDS011;4965;43.238;27.864;2022-08-16T08:12:59;10.18;;;7.30;;
9852;SDS011;4965;43.238;27.864;2022-08-16T08:15:27;7.82;;;6.75;;
9852;SDS011;4965;43.238;27.864;2022-08-16T08:17:54;11.32;;;7.47;;
9852;SDS011;4965;43.238;27.864;2022-08-16T08:20:21;8.60;;;7.57;;
9852;SDS011;4965;43.238;27.864;2022-08-16T08:22:51;12.82;;;7.00;;
9852;SDS011;4965;43.238;27.864;2022-08-16T08:25:19;11.70;;;7.78;;
9852;SDS011;4965;43.238;27.864;2022-08-16T08:27:47;10.05;;;6.80;;
9852;SDS011;4965;43.238;27.864;2022-08-16T08:30:14;15.52;;;7.25;;
9852;SDS011;4965;43.238;27.864;2022-08-16T08:32:43;13.20;;;7.22;;
9852;SDS011;4965;43.238;27.864;2022-08-16T08:35:10;12.32;;;6.38;;
9852;SDS011;4965;43.238;27.864;2022-08-16T08:37:38;11.10;;;6.88;;
9852;SDS011;4965;43.238;27.864;2022-08-16T08:40:05;8.07;;;6.90;;
9852;SDS011;4965;43.238;27.864;2022-08-16T08:42:35;11.90;;;6.95;;
9852;SDS011;4965;43.238;27.864;2022-08-16T08:45:03;7.57;;;6.80;;
9852;SDS011;4965;43.238;27.864;2022-08-16T08:47:30;9.30;;;7.30;;
9852;SDS011;4965;43.238;27.864;2022-08-16T08:49:59;12.27;;;7.32;;
9852;SDS011;4965;43.238;27.864;2022-08-16T08:52:26;15.05;;;7.68;;
9852;SDS011;4965;43.238;27.864;2022-08-16T08:54:53;14.98;;;7.20;;
9852;SDS011;4965;43.238;27.864;2022-08-16T08:57:21;14.40;;;6.53;;
9852;SDS011;4965;43.238;27.864;2022-08-16T08:59:48;9.13;;;6.78;;
9852;SDS011;4965;43.238;27.864;2022-08-16T09:02:15;14.77;;;6.82;;
9852;SDS011;4965;43.238;27.864;2022-08-16T09:04:42;8.18;;;6.65;;
9852;SDS011;4965;43.238;27.864;2022-08-16T09:07:11;8.43;;;6.60;;
9852;SDS011;4965;43.238;27.864;2022-08-16T09:09:38;11.32;;;6.13;;
9852;SDS011;4965;43.238;27.864;2022-08-16T09:12:05;15.82;;;6.30;;
9852;SDS011;4965;43.238;27.864;2022-08-16T09:14:33;9.32;;;6.30;;
9852;SDS011;4965;43.238;27.864;2022-08-16T09:17:00;10.60;;;6.60;;
9852;SDS011;4965;43.238;27.864;2022-08-16T09:19:27;9.07;;;6.38;;
9852;SDS011;4965;43.238;27.864;2022-08-16T09:21:54;14.57;;;5.85;;
9852;SDS011;4965;43.238;27.864;2022-08-16T09:24:23;7.80;;;5.72;;
9852;SDS011;4965;43.238;27.864;2022-08-16T09:26:50;8.50;;;5.50;;
9852;SDS011;4965;43.238;27.864;2022-08-16T09:29:16;14.13;;;5.47;;
9852;SDS011;4965;43.238;27.864;2022-08-16T09:31:44;5.95;;;5.35;;
9852;SDS011;4965;43.238;27.864;2022-08-16T09:34:11;7.57;;;6.28;;
9852;SDS011;4965;43.238;27.864;2022-08-16T09:36:38;9.20;;;5.60;;
9852;SDS011;4965;43.238;27.864;2022-08-16T09:39:05;6.38;;;5.85;;
9852;SDS011;4965;43.238;27.864;2022-08-16T09:41:34;8.95;;;6.35;;
9852;SDS011;4965;43.238;27.864;2022-08-16T09:44:01;12.25;;;5.85;;
9852;SDS011;4965;43.238;27.864;2022-08-16T09:46:28;9.70;;;5.00;;
9852;SDS011;4965;43.238;27.864;2022-08-16T09:48:56;8.45;;;5.07;;
9852;SDS011;4965;43.238;27.864;2022-08-16T09:51:23;10.07;;;4.75;;
9852;SDS011;4965;43.238;27.864;2022-08-16T09:53:51;6.22;;;4.70;;
9852;SDS011;4965;43.238;27.864;2022-08-16T09:56:23;5.00;;;4.60;;
9852;SDS011;4965;43.238;27.864;2022-08-16T09:58:54;48.60;;;6.63;;
9852;SDS011;4965;43.238;27.864;2022-08-16T10:01:22;5.60;;;4.97;;
9852;SDS011;4965;43.238;27.864;2022-08-16T10:06:36;6.55;;;4.70;;
9852;SDS011;4965;43.238;27.864;2022-08-16T10:09:04;9.65;;;5.60;;
9852;SDS011;4965;43.238;27.864;2022-08-16T10:11:33;12.95;;;6.00;;
9852;SDS011;4965;43.238;27.864;2022-08-16T10:14:19;19.35;;;5.80;;
9852;SDS011;4965;43.238;27.864;2022-08-16T10:16:46;8.25;;;5.40;;
9852;SDS011;4965;43.238;27.864;2022-08-16T10:19:13;8.30;;;5.03;;
9852;SDS011;4965;43.238;27.864;2022-08-16T10:21:41;9.48;;;5.97;;
9852;SDS011;4965;43.238;27.864;2022-08-16T10:24:08;9.85;;;5.63;;
9852;SDS011;4965;43.238;27.864;2022-08-16T10:26:35;11.68;;;7.00;;
9852;SDS011;4965;43.238;27.864;2022-08-16T10:29:03;9.52;;;5.93;;
9852;SDS011;4965;43.238;27.864;2022-08-16T10:31:32;10.48;;;7.13;;
9852;SDS011;4965;43.238;27.864;2022-08-16T10:33:59;9.00;;;5.72;;
9852;SDS011;4965;43.238;27.864;2022-08-16T10:36:26;12.45;;;5.78;;
9852;SDS011;4965;43.238;27.864;2022-08-16T10:38:54;8.45;;;5.75;;
9852;SDS011;4965;43.238;27.864;2022-08-16T10:41:21;8.10;;;6.00;;
9852;SDS011;4965;43.238;27.864;2022-08-16T10:43:48;8.55;;;6.07;;
9852;SDS011;4965;43.238;27.864;2022-08-16T10:46:17;6.10;;;5.60;;
9852;SDS011;4965;43.238;27.864;2022-08-16T10:48:45;6.35;;;5.75;;
9852;SDS011;4965;43.238;27.864;2022-08-16T10:51:12;10.35;;;5.53;;
9852;SDS011;4965;43.238;27.864;2022-08-16T10:53:39;13.32;;;5.78;;
9852;SDS011;4965;43.238;27.864;2022-08-16T10:56:07;11.82;;;6.88;;
9852;SDS011;4965;43.238;27.864;2022-08-16T10:58:35;9.60;;;6.35;;
9852;SDS011;4965;43.238;27.864;2022-08-16T11:01:04;6.82;;;5.85;;
9852;SDS011;4965;43.238;27.864;2022-08-16T11:03:33;6.85;;;5.80;;
9852;SDS011;4965;43.238;27.864;2022-08-16T11:06:02;8.95;;;6.28;;
9852;SDS011;4965;43.238;27.864;2022-08-16T11:08:30;9.13;;;5.38;;
9852;SDS011;4965;43.238;27.864;2022-08-16T11:10:57;6.28;;;5.70;;
9852;SDS011;4965;43.238;27.864;2022-08-16T11:13:25;6.70;;;5.80;;
9852;SDS011;4965;43.238;27.864;2022-08-16T11:15:53;7.05;;;5.75;;
9852;SDS011;4965;43.238;27.864;2022-08-16T11:18:21;7.80;;;6.00;;
9852;SDS011;4965;43.238;27.864;2022-08-16T11:20:49;15.68;;;6.20;;
9852;SDS011;4965;43.238;27.864;2022-08-16T11:23:17;9.15;;;6.22;;
9852;SDS011;4965;43.238;27.864;2022-08-16T11:25:44;6.45;;;5.85;;
9852;SDS011;4965;43.238;27.864;2022-08-16T11:28:11;13.50;;;6.00;;
9852;SDS011;4965;43.238;27.864;2022-08-16T11:30:38;9.98;;;6.07;;
9852;SDS011;4965;43.238;27.864;2022-08-16T11:33:06;10.57;;;5.85;;
9852;SDS011;4965;43.238;27.864;2022-08-16T11:35:33;6.53;;;5.57;;
9852;SDS011;4965;43.238;27.864;2022-08-16T11:38:00;7.40;;;5.82;;
9852;SDS011;4965;43.238;27.864;2022-08-16T11:40:33;6.28;;;5.78;;
9852;SDS011;4965;43.238;27.864;2022-08-16T11:43:02;7.47;;;6.20;;
9852;SDS011;4965;43.238;27.864;2022-08-16T11:45:31;9.25;;;5.93;;
9852;SDS011;4965;43.238;27.864;2022-08-16T11:47:59;8.15;;;7.28;;
9852;SDS011;4965;43.238;27.864;2022-08-16T11:50:26;15.25;;;7.88;;
9852;SDS011;4965;43.238;27.864;2022-08-16T11:52:53;11.70;;;7.35;;
9852;SDS011;4965;43.238;27.864;2022-08-16T11:55:19;8.85;;;7.15;;
9852;SDS011;4965;43.238;27.864;2022-08-16T11:57:48;14.30;;;6.75;;
9852;SDS011;4965;43.238;27.864;2022-08-16T12:00:15;9.32;;;6.95;;
9852;SDS011;4965;43.238;27.864;2022-08-16T12:02:42;12.15;;;7.65;;
9852;SDS011;4965;43.238;27.864;2022-08-16T12:05:11;10.18;;;7.65;;
9852;SDS011;4965;43.238;27.864;2022-08-16T12:07:40;13.52;;;8.02;;
9852;SDS011;4965;43.238;27.864;2022-08-16T12:10:09;11.35;;;7.78;;
9852;SDS011;4965;43.238;27.864;2022-08-16T12:12:38;11.32;;;7.63;;
9852;SDS011;4965;43.238;27.864;2022-08-16T12:15:07;14.02;;;7.45;;
9852;SDS011;4965;43.238;27.864;2022-08-16T12:17:35;14.63;;;7.47;;
9852;SDS011;4965;43.238;27.864;2022-08-16T12:20:04;10.77;;;6.70;;
9852;SDS011;4965;43.238;27.864;2022-08-16T12:22:34;12.32;;;7.72;;
9852;SDS011;4965;43.238;27.864;2022-08-16T12:25:03;20.63;;;8.70;;
9852;SDS011;4965;43.238;27.864;2022-08-16T12:27:35;18.08;;;9.15;;
9852;SDS011;4965;43.238;27.864;2022-08-16T12:30:03;10.43;;;7.65;;
9852;SDS011;4965;43.238;27.864;2022-08-16T12:32:32;12.15;;;8.18;;
9852;SDS011;4965;43.238;27.864;2022-08-16T12:34:59;8.95;;;7.63;;
9852;SDS011;4965;43.238;27.864;2022-08-16T12:37:27;12.15;;;8.05;;
9852;SDS011;4965;43.238;27.864;2022-08-16T12:39:54;11.70;;;8.88;;
9852;SDS011;4965;43.238;27.864;2022-08-16T12:42:22;14.23;;;9.70;;
9852;SDS011;4965;43.238;27.864;2022-08-16T12:44:49;17.65;;;8.82;;
9852;SDS011;4965;43.238;27.864;2022-08-16T12:47:16;15.35;;;9.45;;
9852;SDS011;4965;43.238;27.864;2022-08-16T12:50:16;15.82;;;10.23;;
9852;SDS011;4965;43.238;27.864;2022-08-16T12:52:44;13.23;;;9.95;;
9852;SDS011;4965;43.238;27.864;2022-08-16T12:55:10;20.15;;;9.63;;
9852;SDS011;4965;43.238;27.864;2022-08-16T12:57:37;15.13;;;10.00;;
9852;SDS011;4965;43.238;27.864;2022-08-16T13:00:05;10.45;;;8.77;;
9852;SDS011;4965;43.238;27.864;2022-08-16T13:02:36;14.82;;;9.25;;
9852;SDS011;4965;43.238;27.864;2022-08-16T13:05:04;12.38;;;8.93;;
9852;SDS011;4965;43.238;27.864;2022-08-16T13:07:33;13.13;;;8.98;;
9852;SDS011;4965;43.238;27.864;2022-08-16T13:10:00;15.93;;;9.82;;
9852;SDS011;4965;43.238;27.864;2022-08-16T13:12:33;28.98;;;9.98;;
9852;SDS011;4965;43.238;27.864;2022-08-16T13:15:03;11.77;;;8.98;;
9852;SDS011;4965;43.238;27.864;2022-08-16T13:17:30;18.08;;;7.45;;
9852;SDS011;4965;43.238;27.864;2022-08-16T13:19:57;13.48;;;6.15;;
9852;SDS011;4965;43.238;27.864;2022-08-16T13:22:25;8.70;;;5.65;;
9852;SDS011;4965;43.238;27.864;2022-08-16T13:24:53;7.15;;;6.45;;
9852;SDS011;4965;43.238;27.864;2022-08-16T13:27:20;9.77;;;6.38;;
9852;SDS011;4965;43.238;27.864;2022-08-16T13:29:47;16.58;;;6.03;;
9852;SDS011;4965;43.238;27.864;2022-08-16T13:32:14;10.63;;;5.60;;
9852;SDS011;4965;43.238;27.864;2022-08-16T13:34:41;5.93;;;5.43;;
9852;SDS011;4965;43.238;27.864;2022-08-16T13:37:08;11.32;;;5.15;;
9852;SDS011;4965;43.238;27.864;2022-08-16T13:39:35;12.40;;;7.57;;
9852;SDS011;4965;43.238;27.864;2022-08-16T13:42:03;8.95;;;6.65;;
9852;SDS011;4965;43.238;27.864;2022-08-16T13:44:35;14.00;;;8.02;;
9852;SDS011;4965;43.238;27.864;2022-08-16T13:47:02;12.48;;;7.88;;
9852;SDS011;4965;43.238;27.864;2022-08-16T13:49:30;9.68;;;7.80;;
9852;SDS011;4965;43.238;27.864;2022-08-16T13:51:57;8.80;;;7.03;;
9852;SDS011;4965;43.238;27.864;2022-08-16T13:54:23;10.35;;;6.43;;
9852;SDS011;4965;43.238;27.864;2022-08-16T13:56:50;6.20;;;5.60;;
9852;SDS011;4965;43.238;27.864;2022-08-16T13:59:19;6.38;;;5.70;;
9852;SDS011;4965;43.238;27.864;2022-08-16T14:01:46;7.95;;;6.32;;
9852;SDS011;4965;43.238;27.864;2022-08-16T14:04:15;6.57;;;5.68;;
9852;SDS011;4965;43.238;27.864;2022-08-16T14:06:42;5.72;;;5.20;;
9852;SDS011;4965;43.238;27.864;2022-08-16T14:09:09;7.07;;;5.93;;
9852;SDS011;4965;43.238;27.864;2022-08-16T14:11:36;5.95;;;5.35;;
9852;SDS011;4965;43.238;27.864;2022-08-16T14:14:03;7.82;;;7.05;;
9852;SDS011;4965;43.238;27.864;2022-08-16T14:16:32;8.18;;;5.90;;
9852;SDS011;4965;43.238;27.864;2022-08-16T14:18:59;8.23;;;5.65;;
9852;SDS011;4965;43.238;27.864;2022-08-16T14:21:26;6.30;;;5.15;;
9852;SDS011;4965;43.238;27.864;2022-08-16T14:23:53;9.25;;;5.50;;
9852;SDS011;4965;43.238;27.864;2022-08-16T14:26:20;21.52;;;19.27;;
9852;SDS011;4965;43.238;27.864;2022-08-16T14:28:47;13.25;;;11.93;;
9852;SDS011;4965;43.238;27.864;2022-08-16T14:31:15;8.30;;;6.50;;
9852;SDS011;4965;43.238;27.864;2022-08-16T14:33:43;10.32;;;4.82;;
9852;SDS011;4965;43.238;27.864;2022-08-16T14:36:10;9.15;;;5.40;;
9852;SDS011;4965;43.238;27.864;2022-08-16T14:38:39;5.88;;;5.18;;
9852;SDS011;4965;43.238;27.864;2022-08-16T14:41:06;7.18;;;5.03;;
9852;SDS011;4965;43.238;27.864;2022-08-16T14:43:33;11.57;;;5.50;;
9852;SDS011;4965;43.238;27.864;2022-08-16T14:45:59;5.30;;;4.80;;
9852;SDS011;4965;43.238;27.864;2022-08-16T14:48:28;6.57;;;5.15;;
9852;SDS011;4965;43.238;27.864;2022-08-16T14:50:57;10.88;;;5.35;;
9852;SDS011;4965;43.238;27.864;2022-08-16T14:53:24;5.95;;;5.20;;
9852;SDS011;4965;43.238;27.864;2022-08-16T14:55:53;6.60;;;5.13;;
9852;SDS011;4965;43.238;27.864;2022-08-16T14:58:22;8.80;;;5.15;;